Time;durP1;ratioP1;P1;durP2;ratioP2;P2;SDS_P1;SDS_P2;PMS_P1;PMS_P2;Temp;Humidity;BMP_temperature;BMP_pressure;BME280_temperature;BME280_humidity;BME280_pressure;Samples;Min_cycle;Max_cycle;Signal;HPM_P1;HPM_P2
2024/02/02 00:00:19;;;;;;;55.08;37.70;;;179.30;2252.80;;;;;;4833040;29;20129;-82
2024/02/02 00:02:44;;;;;;;59.10;40.47;;;179.30;2252.80;;;;;;4837298;29;20026;-79
2024/02/02 00:05:10;;;;;;;60.65;41.10;;;179.20;2252.80;;;;;;4832795;29;20034;-80
2024/02/02 00:07:36;;;;;;;64.25;44.00;;;179.20;2252.80;;;;;;4824901;29;20027;-81
2024/02/02 00:10:02;;;;;;;68.47;45.45;;;179.20;2252.80;;;;;;4823480;29;20027;-78
2024/02/02 00:12:28;;;;;;;55.53;42.53;;;179.20;2252.80;;;;;;4826586;29;20405;-79
2024/02/02 00:14:54;;;;;;;63.85;46.70;;;154.50;2252.80;;;;;;4831782;29;20034;-76
2024/02/02 00:17:21;;;;;;;60.50;43.20;;;154.50;2252.80;;;;;;4826602;29;20030;-79
2024/02/02 00:19:47;;;;;;;64.80;42.10;;;179.20;2252.80;;;;;;4825556;29;20145;-79
2024/02/02 00:22:12;;;;;;;54.35;40.90;;;179.20;2252.80;;;;;;4829389;29;20061;-76
2024/02/02 00:24:39;;;;;;;72.65;52.88;;;179.30;2252.80;;;;;;4823872;29;20042;-81
2024/02/02 00:27:05;;;;;;;74.38;48.03;;;179.20;2252.80;;;;;;4836524;29;20030;-84
2024/02/02 00:29:31;;;;;;;66.80;46.50;;;179.30;2252.80;;;;;;4825432;29;20030;-79
2024/02/02 00:31:57;;;;;;;65.57;46.08;;;179.40;2252.80;;;;;;4829099;29;20022;-85
2024/02/02 00:34:23;;;;;;;66.45;43.97;;;179.40;2252.80;;;;;;4828736;29;20023;-83
2024/02/02 00:36:49;;;;;;;63.05;44.97;;;179.50;2252.80;;;;;;4831830;29;20030;-79
2024/02/02 00:39:15;;;;;;;58.22;40.17;;;179.50;2252.80;;;;;;4823866;29;20058;-85
2024/02/02 00:41:41;;;;;;;79.68;54.33;;;179.60;2252.80;;;;;;4828587;29;20061;-82
2024/02/02 00:44:07;;;;;;;75.88;52.65;;;179.40;2252.80;;;;;;4825368;29;20041;-83
2024/02/02 00:46:33;;;;;;;77.88;51.67;;;179.30;2252.80;;;;;;4810167;29;20430;-83
2024/02/02 00:48:59;;;;;;;74.43;48.08;;;179.40;2252.80;;;;;;4824513;29;20030;-83
2024/02/02 00:51:25;;;;;;;65.38;47.08;;;179.50;2252.80;;;;;;4830239;29;20355;-82
2024/02/02 00:53:51;;;;;;;82.68;55.38;;;179.40;2252.80;;;;;;4826940;29;20580;-79
2024/02/02 00:56:17;;;;;;;70.70;51.47;;;179.50;2252.80;;;;;;4822593;29;20486;-79
2024/02/02 00:58:42;;;;;;;64.68;43.90;;;179.40;2252.80;;;;;;4822928;29;20034;-76
2024/02/02 01:01:08;;;;;;;67.65;45.30;;;179.40;2252.80;;;;;;4824621;29;20109;-77
2024/02/02 01:03:37;;;;;;;63.08;42.17;;;179.60;2252.80;;;;;;4828946;29;20393;-77
2024/02/02 01:06:04;;;;;;;57.97;42.67;;;179.50;2252.80;;;;;;4824154;29;20167;-78
2024/02/02 01:08:30;;;;;;;64.57;43.60;;;179.40;2252.80;;;;;;4826713;29;20025;-78
2024/02/02 01:10:56;;;;;;;60.60;43.78;;;179.40;2252.80;;;;;;4823599;29;20394;-82
2024/02/02 01:13:22;;;;;;;66.95;46.17;;;179.30;2252.80;;;;;;4822692;29;20118;-83
2024/02/02 01:15:48;;;;;;;66.72;45.67;;;179.20;2252.80;;;;;;4825362;29;20133;-82
2024/02/02 01:18:16;;;;;;;63.42;46.28;;;179.20;2252.80;;;;;;4826391;29;20040;-84
2024/02/02 01:20:42;;;;;;;65.70;48.22;;;154.50;2252.80;;;;;;4825418;29;20503;-82
2024/02/02 01:23:09;;;;;;;61.63;41.17;;;154.40;2252.80;;;;;;4825378;29;20035;-84
2024/02/02 01:25:35;;;;;;;62.55;39.00;;;154.40;2252.80;;;;;;4814287;29;20527;-82
2024/02/02 01:28:01;;;;;;;55.35;39.17;;;154.30;2252.80;;;;;;4826587;29;20441;-80
2024/02/02 01:30:29;;;;;;;52.33;36.40;;;154.40;2252.80;;;;;;4812491;29;20101;-88
2024/02/02 01:32:56;;;;;;;51.70;32.92;;;154.30;2252.80;;;;;;4838466;29;20038;-84
2024/02/02 01:35:22;;;;;;;48.03;31.67;;;154.40;2252.80;;;;;;4832474;29;20543;-85
2024/02/02 01:37:48;;;;;;;44.35;26.38;;;154.50;2252.80;;;;;;4831730;29;20030;-84
2024/02/02 01:40:14;;;;;;;41.72;29.02;;;154.40;2252.80;;;;;;4823245;29;20034;-79
2024/02/02 01:42:40;;;;;;;35.38;24.35;;;179.30;2252.80;;;;;;4839572;29;20029;-84
2024/02/02 01:45:07;;;;;;;42.08;26.05;;;179.30;2252.80;;;;;;4829180;29;20030;-79
2024/02/02 01:47:34;;;;;;;36.20;24.85;;;179.40;2252.80;;;;;;4839716;29;20026;-82
2024/02/02 01:50:00;;;;;;;31.63;22.83;;;179.30;2252.80;;;;;;4839413;29;20398;-84
2024/02/02 01:52:26;;;;;;;38.45;27.35;;;179.40;2252.80;;;;;;4822868;29;20030;-82
2024/02/02 01:54:52;;;;;;;27.67;22.85;;;179.40;2252.80;;;;;;4823387;29;20072;-83
2024/02/02 01:57:19;;;;;;;33.10;22.25;;;179.50;2252.80;;;;;;4838272;29;20038;-82
2024/02/02 01:59:45;;;;;;;32.63;21.48;;;179.60;2252.80;;;;;;4839444;29;20101;-78
2024/02/02 02:02:12;;;;;;;24.63;17.08;;;179.60;2252.80;;;;;;4822613;29;20030;-77
2024/02/02 02:04:40;;;;;;;29.50;18.08;;;179.60;2252.80;;;;;;4837580;29;20022;-78
2024/02/02 02:07:06;;;;;;;24.80;17.83;;;179.70;2252.80;;;;;;4837856;29;20501;-80
2024/02/02 02:09:33;;;;;;;24.50;17.95;;;179.80;2252.80;;;;;;4839303;29;20116;-80
2024/02/02 02:12:00;;;;;;;20.10;12.70;;;179.80;2252.80;;;;;;4837406;29;20029;-79
2024/02/02 02:14:26;;;;;;;20.00;17.02;;;179.90;2252.80;;;;;;4838871;29;20386;-80
2024/02/02 02:16:52;;;;;;;21.27;14.63;;;179.90;2252.80;;;;;;4839445;29;20030;-78
2024/02/02 02:19:17;;;;;;;26.15;18.30;;;179.90;2252.80;;;;;;4838414;29;20034;-78
2024/02/02 02:21:43;;;;;;;22.05;16.85;;;180.00;2252.80;;;;;;4838872;29;20106;-79
2024/02/02 02:24:10;;;;;;;45.25;28.88;;;180.10;2252.80;;;;;;4838699;29;20038;-80
2024/02/02 02:26:36;;;;;;;27.95;19.60;;;180.00;2252.80;;;;;;4838778;29;20050;-80
2024/02/02 02:29:02;;;;;;;29.67;20.02;;;179.90;2252.80;;;;;;4822221;29;20030;-80
2024/02/02 02:31:28;;;;;;;28.60;19.17;;;180.00;2252.80;;;;;;4838586;29;20390;-78
2024/02/02 02:33:54;;;;;;;24.45;17.35;;;179.90;2252.80;;;;;;4838597;29;20545;-79
2024/02/02 02:36:20;;;;;;;30.30;18.50;;;180.10;2252.80;;;;;;4845693;29;20042;-79
2024/02/02 02:38:47;;;;;;;20.20;12.82;;;180.10;2252.80;;;;;;4821973;29;20026;-79
2024/02/02 02:41:14;;;;;;;27.58;18.70;;;180.10;2252.80;;;;;;4838814;29;20118;-78
2024/02/02 02:43:40;;;;;;;18.02;13.20;;;180.10;2252.80;;;;;;4838517;29;20033;-78
2024/02/02 02:46:07;;;;;;;26.98;17.77;;;204.80;2252.80;;;;;;4838304;29;20110;-79
2024/02/02 02:48:33;;;;;;;68.93;58.97;;;180.10;2252.80;;;;;;4822110;29;20041;-79
2024/02/02 02:51:00;;;;;;;20.40;16.15;;;179.90;2252.80;;;;;;4838221;29;20037;-78
2024/02/02 02:53:26;;;;;;;27.98;20.85;;;205.00;2252.80;;;;;;4838007;29;20094;-78
2024/02/02 02:55:52;;;;;;;26.70;18.85;;;180.10;2252.80;;;;;;4838764;29;20445;-84
2024/02/02 02:58:18;;;;;;;23.85;16.05;;;180.10;2252.80;;;;;;4838320;29;20098;-84
2024/02/02 03:00:44;;;;;;;30.27;19.23;;;180.10;2252.80;;;;;;4838427;29;20038;-85
2024/02/02 03:03:10;;;;;;;29.38;17.55;;;180.00;2252.80;;;;;;4838253;29;20022;-81
2024/02/02 03:05:37;;;;;;;26.52;16.88;;;180.00;2252.80;;;;;;4838399;29;20109;-84
2024/02/02 03:08:06;;;;;;;26.10;18.42;;;179.90;2252.80;;;;;;4839023;29;20014;-81
2024/02/02 03:10:32;;;;;;;30.75;19.02;;;179.90;2252.80;;;;;;4838632;29;20030;-76
2024/02/02 03:12:58;;;;;;;30.13;16.80;;;179.90;2252.80;;;;;;4838116;29;20021;-77
2024/02/02 03:15:25;;;;;;;29.05;18.13;;;180.00;2252.80;;;;;;4821150;29;20041;-77
2024/02/02 03:17:50;;;;;;;25.38;18.48;;;179.90;2252.80;;;;;;4821774;29;20516;-83
2024/02/02 03:20:16;;;;;;;24.73;18.58;;;179.90;2252.80;;;;;;4838114;29;20096;-76
2024/02/02 03:22:42;;;;;;;27.02;19.60;;;179.90;2252.80;;;;;;4838070;29;20465;-77
2024/02/02 03:25:09;;;;;;;24.40;17.50;;;179.90;2252.80;;;;;;4838311;29;20038;-84
2024/02/02 03:27:35;;;;;;;26.58;18.40;;;179.90;2252.80;;;;;;4838370;29;20098;-84
2024/02/02 03:30:03;;;;;;;62.60;32.47;;;179.90;2252.80;;;;;;4822223;29;20456;-80
2024/02/02 03:32:29;;;;;;;28.58;19.92;;;179.80;2252.80;;;;;;4838238;29;20461;-82
2024/02/02 03:34:56;;;;;;;28.40;19.85;;;180.00;2252.80;;;;;;4838574;29;20086;-84
2024/02/02 03:37:22;;;;;;;27.58;19.73;;;179.90;2252.80;;;;;;4837378;29;20026;-83
2024/02/02 03:39:49;;;;;;;31.67;20.20;;;179.90;2252.80;;;;;;4838135;29;20126;-78
2024/02/02 03:42:15;;;;;;;30.75;19.27;;;179.80;2252.80;;;;;;4838048;29;20022;-79
2024/02/02 03:44:41;;;;;;;27.85;20.33;;;179.90;2252.80;;;;;;4837768;29;20437;-78
2024/02/02 03:47:07;;;;;;;39.40;28.48;;;179.90;2252.80;;;;;;4837754;29;20022;-78
2024/02/02 03:49:34;;;;;;;31.92;21.55;;;179.80;2252.80;;;;;;4837882;29;20029;-79
2024/02/02 03:52:07;;;;;;;36.70;22.42;;;179.90;2252.80;;;;;;4837745;29;20057;-78
2024/02/02 03:54:33;;;;;;;28.58;19.65;;;179.90;2252.80;;;;;;4837648;29;20077;-78
2024/02/02 03:57:01;;;;;;;47.90;29.27;;;179.90;2252.80;;;;;;4838105;29;20034;-81
2024/02/02 03:59:27;;;;;;;33.67;21.13;;;179.80;2252.80;;;;;;4821511;29;20038;-81
2024/02/02 04:01:53;;;;;;;40.38;33.20;;;179.80;2252.80;;;;;;4838062;29;20026;-83
2024/02/02 04:04:18;;;;;;;30.98;19.38;;;179.80;2252.80;;;;;;4837848;29;20033;-82
2024/02/02 04:06:44;;;;;;;34.63;21.95;;;179.80;2252.80;;;;;;4838358;29;20030;-83
2024/02/02 04:09:10;;;;;;;32.45;21.80;;;179.80;2252.80;;;;;;4836762;29;20061;-83
2024/02/02 04:11:39;;;;;;;36.38;24.00;;;179.70;2252.80;;;;;;4837768;29;20065;-78
2024/02/02 04:14:08;;;;;;;27.75;20.33;;;179.70;2252.80;;;;;;4830701;29;20122;-78
2024/02/02 04:16:34;;;;;;;30.20;21.08;;;179.60;2252.80;;;;;;4827661;29;20109;-77
2024/02/02 04:19:00;;;;;;;26.98;18.98;;;179.60;2252.80;;;;;;4837273;29;20437;-78
2024/02/02 04:21:26;;;;;;;36.20;25.40;;;179.60;2252.80;;;;;;4837722;29;20034;-77
2024/02/02 04:23:51;;;;;;;30.23;18.60;;;179.50;2252.80;;;;;;4837575;29;20458;-77
2024/02/02 04:26:17;;;;;;;25.02;16.48;;;179.40;2252.80;;;;;;4839327;29;20037;-83
2024/02/02 04:28:43;;;;;;;34.97;23.73;;;179.40;2252.80;;;;;;4828557;29;20030;-83
2024/02/02 04:31:09;;;;;;;23.75;17.30;;;179.40;2252.80;;;;;;4841204;29;20034;-83
2024/02/02 04:33:35;;;;;;;21.10;14.57;;;179.30;2252.80;;;;;;4841201;29;20117;-82
2024/02/02 04:36:00;;;;;;;22.27;15.10;;;179.30;2252.80;;;;;;4824417;29;20042;-83
2024/02/02 04:38:26;;;;;;;25.25;16.05;;;179.30;2252.80;;;;;;4840725;29;20037;-80
2024/02/02 04:40:52;;;;;;;20.25;12.68;;;179.30;2252.80;;;;;;4841026;29;20544;-77
2024/02/02 04:43:18;;;;;;;21.48;16.20;;;179.20;2252.80;;;;;;4824002;29;20065;-77
2024/02/02 04:45:44;;;;;;;18.88;13.57;;;179.20;2252.80;;;;;;4840656;29;20030;-77
2024/02/02 04:48:10;;;;;;;21.50;14.25;;;154.50;2252.80;;;;;;4840288;29;20030;-77
2024/02/02 04:50:35;;;;;;;22.50;15.00;;;154.50;2252.80;;;;;;4839249;29;20045;-77
2024/02/02 04:53:01;;;;;;;23.08;14.98;;;154.40;2252.80;;;;;;4840265;29;20111;-77
2024/02/02 04:55:27;;;;;;;22.58;15.27;;;154.40;2252.80;;;;;;4840589;29;20431;-77
2024/02/02 04:57:53;;;;;;;21.67;15.70;;;154.40;2252.80;;;;;;4840537;29;20063;-79
2024/02/02 05:00:19;;;;;;;22.85;15.15;;;154.30;2252.80;;;;;;4840220;29;20121;-77
2024/02/02 05:02:45;;;;;;;24.42;16.55;;;154.10;2252.80;;;;;;4840284;29;20473;-77
2024/02/02 05:05:11;;;;;;;25.52;16.65;;;154.20;2252.80;;;;;;4840404;29;20382;-77
2024/02/02 05:07:37;;;;;;;26.60;20.63;;;154.10;2252.80;;;;;;4840172;29;20037;-77
2024/02/02 05:10:06;;;;;;;32.75;19.48;;;154.10;2252.80;;;;;;4840723;29;20069;-81
2024/02/02 05:12:33;;;;;;;27.83;18.58;;;154.00;2252.80;;;;;;4840080;29;20105;-78
2024/02/02 05:14:59;;;;;;;28.23;20.80;;;154.00;2252.80;;;;;;4839937;29;20034;-77
2024/02/02 05:17:26;;;;;;;26.02;18.35;;;153.90;2252.80;;;;;;4840383;29;20430;-77
2024/02/02 05:19:52;;;;;;;33.03;19.83;;;153.80;2252.80;;;;;;4840082;29;20038;-79
2024/02/02 05:22:17;;;;;;;31.75;20.63;;;153.80;2252.80;;;;;;4839591;29;20038;-77
2024/02/02 05:24:43;;;;;;;54.75;38.33;;;153.70;2252.80;;;;;;4840032;29;20389;-77
2024/02/02 05:27:10;;;;;;;35.17;23.88;;;153.70;2252.80;;;;;;4837647;29;20362;-84
2024/02/02 05:29:36;;;;;;;35.10;25.05;;;153.60;2252.80;;;;;;4831426;29;20038;-83
2024/02/02 05:32:02;;;;;;;34.40;25.58;;;153.60;2252.80;;;;;;4840224;29;20033;-85
2024/02/02 05:34:28;;;;;;;31.85;21.48;;;153.60;2252.80;;;;;;4840178;29;20478;-86
2024/02/02 05:36:54;;;;;;;31.55;22.08;;;153.60;2252.80;;;;;;4840024;29;20381;-83
2024/02/02 05:39:20;;;;;;;36.83;23.17;;;153.60;2252.80;;;;;;4831138;29;20034;-83
2024/02/02 05:41:46;;;;;;;32.63;21.25;;;153.60;2252.80;;;;;;4828355;29;20504;-85
2024/02/02 05:44:11;;;;;;;35.08;21.55;;;153.60;2252.80;;;;;;4840015;29;20034;-83
2024/02/02 05:46:37;;;;;;;31.65;19.77;;;128.90;2252.80;;;;;;4839879;29;20038;-82
2024/02/02 05:49:03;;;;;;;92.03;59.03;;;128.90;2252.80;;;;;;4839792;29;20030;-85
2024/02/02 05:51:29;;;;;;;31.13;21.65;;;128.90;2252.80;;;;;;4823749;29;20038;-83
2024/02/02 05:53:55;;;;;;;55.33;42.58;;;128.90;2252.80;;;;;;4839338;29;20089;-85
2024/02/02 05:56:20;;;;;;;31.90;22.50;;;128.80;2252.80;;;;;;4823595;29;20044;-84
2024/02/02 05:58:46;;;;;;;34.28;22.38;;;128.80;2252.80;;;;;;4835664;29;20478;-84
2024/02/02 06:01:12;;;;;;;29.83;21.10;;;128.80;2252.80;;;;;;4843788;29;20041;-85
2024/02/02 06:03:38;;;;;;;29.90;19.67;;;128.80;2252.80;;;;;;4839875;29;20030;-85
2024/02/02 06:06:04;;;;;;;24.67;16.48;;;128.90;2252.80;;;;;;4839928;29;20061;-86
2024/02/02 06:08:30;;;;;;;29.13;18.42;;;128.90;2252.80;;;;;;4846791;29;20112;-87
2024/02/02 06:10:55;;;;;;;25.45;18.50;;;128.90;2252.80;;;;;;4828495;29;20077;-88
2024/02/02 06:13:24;;;;;;;29.38;18.13;;;128.90;2252.80;;;;;;4840600;29;20037;-86
2024/02/02 06:15:50;;;;;;;26.80;15.95;;;128.90;2252.80;;;;;;4824293;29;20061;-86
2024/02/02 06:18:16;;;;;;;22.38;14.65;;;153.60;2252.80;;;;;;4826603;29;20394;-88
2024/02/02 06:20:42;;;;;;;27.48;15.40;;;153.60;2252.80;;;;;;4837183;29;20104;-87
2024/02/02 06:23:08;;;;;;;23.42;14.82;;;153.70;2252.80;;;;;;4824856;29;20065;-88
2024/02/02 06:25:33;;;;;;;21.80;12.88;;;153.70;2252.80;;;;;;4824364;29;20493;-87
2024/02/02 06:27:59;;;;;;;21.20;14.70;;;153.70;2252.80;;;;;;4816023;29;20033;-84
2024/02/02 06:30:26;;;;;;;23.33;14.95;;;153.80;2252.80;;;;;;4820085;29;20121;-84
2024/02/02 06:32:59;;;;;;;37.50;21.40;;;153.70;2252.80;;;;;;4824637;29;20041;-84
2024/02/02 06:35:28;;;;;;;;;;;153.80;2252.80;;;;;;4825624;29;20129;-84
2024/02/02 06:37:54;;;;;;;27.25;15.75;;;153.80;2252.80;;;;;;4830096;29;19919;-83
2024/02/02 06:40:20;;;;;;;22.65;14.77;;;153.80;2252.80;;;;;;4835177;29;20125;-83
2024/02/02 06:42:46;;;;;;;20.73;12.48;;;153.90;2252.80;;;;;;4851003;29;20088;-83
2024/02/02 06:45:12;;;;;;;32.42;21.75;;;153.90;2252.80;;;;;;4850464;29;20034;-82
2024/02/02 06:47:38;;;;;;;37.15;24.55;;;154.10;2252.80;;;;;;4838567;29;20030;-83
2024/02/02 06:50:05;;;;;;;38.50;24.33;;;154.10;2252.80;;;;;;4842597;29;20113;-83
2024/02/02 06:52:31;;;;;;;16.40;10.85;;;154.40;2252.80;;;;;;4821492;29;20157;-83
2024/02/02 06:54:57;;;;;;;28.25;17.77;;;154.40;2252.80;;;;;;4829616;29;20128;-82
2024/02/02 06:57:25;;;;;;;17.63;13.07;;;154.50;2252.80;;;;;;4831805;29;20030;-86
2024/02/02 06:59:51;;;;;;;175.25;94.22;;;179.30;2252.80;;;;;;4825290;29;20030;-84
2024/02/02 07:02:21;;;;;;;154.25;88.25;;;179.40;2252.80;;;;;;4836230;29;20095;-84
2024/02/02 07:04:51;;;;;;;124.13;61.92;;;179.50;2252.80;;;;;;4824838;29;20038;-83
2024/02/02 07:07:17;;;;;;;95.72;45.63;;;179.70;2252.80;;;;;;4840656;29;20026;-85
2024/02/02 07:09:56;;;;;;;128.93;70.93;;;179.80;2252.80;;;;;;4824180;29;20113;-87
2024/02/02 07:13:00;;;;;;;56.78;34.78;;;179.80;2252.80;;;;;;4823910;29;20022;-83
2024/02/02 07:15:32;;;;;;;43.97;26.77;;;179.70;2252.80;;;;;;4837969;29;20030;-85
2024/02/02 07:17:58;;;;;;;28.20;17.20;;;179.90;2252.80;;;;;;4816637;29;20094;-86
2024/02/02 07:20:25;;;;;;;55.85;46.17;;;180.00;2252.80;;;;;;4849361;29;20489;-84
2024/02/02 07:22:56;;;;;;;41.45;30.35;;;180.00;2252.80;;;;;;4838938;29;20083;-83
2024/02/02 07:25:23;;;;;;;29.67;20.50;;;180.10;2252.80;;;;;;4822568;29;20037;-84
2024/02/02 07:27:52;;;;;;;22.30;16.65;;;180.10;2252.80;;;;;;4822853;29;20038;-86
2024/02/02 07:30:43;;;;;;;18.73;11.15;;;204.90;2252.80;;;;;;4824493;29;20034;-86
2024/02/02 07:33:22;;;;;;;16.05;9.68;;;205.00;2252.80;;;;;;4824870;29;20030;-88
2024/02/02 07:35:47;;;;;;;14.00;10.32;;;205.00;2252.80;;;;;;4811329;29;20034;-86
2024/02/02 07:38:46;;;;;;;18.27;12.60;;;205.00;2252.80;;;;;;4818963;29;20086;-86
2024/02/02 07:41:17;;;;;;;16.67;12.15;;;205.10;2252.80;;;;;;4832087;29;20037;-86
2024/02/02 07:43:43;;;;;;;30.63;20.23;;;205.20;2252.80;;;;;;4833638;29;20515;-85
2024/02/02 07:46:10;;;;;;;20.38;12.30;;;205.20;2252.80;;;;;;4825619;29;20491;-85
2024/02/02 07:48:37;;;;;;;15.38;9.70;;;205.30;2252.80;;;;;;4824447;29;20022;-85
2024/02/02 07:51:04;;;;;;;52.35;30.60;;;205.40;2252.80;;;;;;4834704;29;20026;-84
2024/02/02 07:53:29;;;;;;;17.73;11.10;;;205.50;2252.80;;;;;;4838849;29;20107;-85
2024/02/02 07:55:55;;;;;;;36.33;24.42;;;205.40;2252.80;;;;;;4829362;29;20042;-84
2024/02/02 07:58:21;;;;;;;18.98;13.05;;;205.50;2252.80;;;;;;4827846;29;20064;-84
2024/02/02 08:00:48;;;;;;;34.50;20.52;;;205.40;2252.80;;;;;;4860809;29;20042;-85
2024/02/02 08:03:14;;;;;;;86.07;55.97;;;205.60;2252.80;;;;;;4821174;29;20034;-86
2024/02/02 08:05:40;;;;;;;16.83;11.32;;;205.50;2252.80;;;;;;4828040;29;20033;-86
2024/02/02 08:08:06;;;;;;;55.95;39.20;;;205.60;2252.80;;;;;;4827505;29;20068;-86
2024/02/02 08:10:32;;;;;;;18.20;11.55;;;205.70;2252.80;;;;;;4831737;29;20037;-86
2024/02/02 08:12:58;;;;;;;19.02;12.75;;;230.50;2252.80;;;;;;4835234;29;20477;-85
2024/02/02 08:15:24;;;;;;;18.67;13.65;;;230.60;2252.80;;;;;;4829690;29;20077;-86
2024/02/02 08:17:51;;;;;;;20.55;12.55;;;230.90;2252.80;;;;;;4829158;29;20120;-86
2024/02/02 08:20:17;;;;;;;31.45;22.48;;;231.30;2252.80;;;;;;4826753;29;20064;-87
2024/02/02 08:22:43;;;;;;;16.88;11.07;;;256.50;2252.80;;;;;;4837733;29;20062;-86
2024/02/02 08:25:10;;;;;;;21.40;15.40;;;256.30;2252.80;;;;;;4827714;29;20053;-86
2024/02/02 08:27:36;;;;;;;17.83;13.43;;;282.40;2278.40;;;;;;4820769;29;20030;-86
2024/02/02 08:30:02;;;;;;;21.92;16.77;;;307.80;2304.00;;;;;;4819038;29;20034;-87
2024/02/02 08:32:28;;;;;;;19.27;14.45;;;333.50;2201.60;;;;;;4847732;29;20021;-87
2024/02/02 08:34:54;;;;;;;14.85;11.25;;;358.80;2124.80;;;;;;4843683;29;20507;-87
2024/02/02 08:37:20;;;;;;;21.05;15.73;;;359.00;2048.00;;;;;;4825325;29;20033;-86
2024/02/02 08:39:45;;;;;;;26.73;15.77;;;359.20;2022.40;;;;;;4836837;29;20042;-86
2024/02/02 08:42:23;;;;;;;100.05;66.70;;;358.70;2073.60;;;;;;4825495;29;20022;-86
2024/02/02 08:44:53;;;;;;;25.35;18.30;;;333.40;2099.20;;;;;;4825461;29;20071;-85
2024/02/02 08:47:20;;;;;;;16.52;12.70;;;308.00;2124.80;;;;;;4839034;29;20070;-80
2024/02/02 08:49:59;;;;;;;18.85;13.43;;;307.80;2176.00;;;;;;4840208;29;20089;-81
2024/02/02 08:52:34;;;;;;;21.90;10.15;;;307.50;2201.60;;;;;;4824217;29;20069;-80
2024/02/02 08:55:03;;;;;;;19.27;11.98;;;282.30;2176.00;;;;;;4824182;29;20113;-87
2024/02/02 08:58:01;;;;;;;14.20;9.13;;;282.00;2201.60;;;;;;4839273;29;20425;-89
2024/02/02 09:00:41;;;;;;;12.20;9.05;;;282.20;2201.60;;;;;;4824189;29;20496;-83
2024/02/02 09:03:32;;;;;;;42.92;35.40;;;307.30;2176.00;;;;;;4823502;29;20041;-82
2024/02/02 09:05:59;;;;;;;21.80;16.20;;;307.90;2150.40;;;;;;4823581;29;20091;-83
2024/02/02 09:08:41;;;;;;;15.27;10.63;;;358.60;1996.80;;;;;;4841002;29;20026;-87
2024/02/02 09:11:07;;;;;;;28.13;22.08;;;384.00;1920.00;;;;;;4824084;29;20073;-84
2024/02/02 09:13:34;;;;;;;18.52;10.98;;;384.70;1817.60;;;;;;4823039;29;20026;-87
2024/02/02 09:16:00;;;;;;;22.48;17.63;;;359.20;1868.80;;;;;;4824817;29;20042;-91
2024/02/02 09:18:38;;;;;;;15.40;10.25;;;359.10;1868.80;;;;;;4841511;29;20076;-91
2024/02/02 09:21:08;;;;;;;13.48;8.57;;;358.40;1945.60;;;;;;4824515;29;20058;-87
2024/02/02 09:23:35;;;;;;;19.60;12.95;;;358.40;1894.40;;;;;;4839930;29;20125;-90
2024/02/02 09:26:14;;;;;;;12.40;10.35;;;384.30;1843.20;;;;;;4824809;29;20034;-91
2024/02/02 09:28:45;;;;;;;22.35;16.38;;;410.00;1792.00;;;;;;4843353;29;20485;-84
2024/02/02 09:31:21;;;;;;;28.08;19.98;;;435.90;1689.60;;;;;;4840030;29;20069;-86
2024/02/02 09:33:50;;;;;;;21.13;17.50;;;435.30;1664.00;;;;;;4840033;29;20489;-84
2024/02/02 09:36:16;;;;;;;20.67;16.73;;;436.10;1638.40;;;;;;4824240;29;20389;-85
2024/02/02 09:38:58;;;;;;;23.67;18.25;;;435.20;1689.60;;;;;;4823614;29;20037;-83
2024/02/02 09:42:06;;;;;;;29.25;24.13;;;435.60;1664.00;;;;;;4824139;29;20520;-86
2024/02/02 09:44:47;;;;;;;47.60;34.00;;;409.80;1740.80;;;;;;4823998;29;20037;-84
2024/02/02 09:47:19;;;;;;;10.85;6.90;;;359.10;1792.00;;;;;;4824153;29;20075;-76
2024/02/02 09:50:06;;;;;;;15.18;8.25;;;333.20;1868.80;;;;;;4835376;29;20367;-80
2024/02/02 09:52:48;;;;;;;14.57;9.32;;;308.10;1868.80;;;;;;4839805;29;20078;-80
2024/02/02 09:55:28;;;;;;;9.13;6.25;;;332.80;1920.00;;;;;;4823333;29;20049;-79
2024/02/02 09:58:23;;;;;;;21.30;12.93;;;308.00;1894.40;;;;;;4823196;29;20043;-79
2024/02/02 10:01:02;;;;;;;14.52;9.52;;;308.00;1945.60;;;;;;4823804;29;20061;-86
2024/02/02 10:03:45;;;;;;;28.00;18.02;;;307.80;1945.60;;;;;;4824251;29;20189;-86
2024/02/02 10:06:10;;;;;;;26.38;14.35;;;307.50;1971.20;;;;;;4824413;29;20022;-86
2024/02/02 10:08:52;;;;;;;35.05;23.77;;;307.20;1971.20;;;;;;4840296;29;20030;-86
2024/02/02 10:11:39;;;;;;;21.45;9.85;;;282.50;1920.00;;;;;;4823592;29;20614;-85
2024/02/02 10:14:22;;;;;;;39.85;24.67;;;282.50;1920.00;;;;;;4823178;29;20059;-81
2024/02/02 10:16:55;;;;;;;;;;;307.50;1920.00;;;;;;4823803;29;20042;-81
2024/02/02 10:19:27;;;;;;;33.97;20.37;;;307.80;1894.40;;;;;;4838997;29;19909;-81
2024/02/02 10:22:19;;;;;;;21.30;15.40;;;332.90;1894.40;;;;;;4839538;29;20037;-81
2024/02/02 10:24:57;;;;;;;21.30;16.20;;;333.40;1817.60;;;;;;4826069;29;20042;-82
2024/02/02 10:27:42;;;;;;;12.90;6.68;;;333.50;1817.60;;;;;;4834814;29;20030;-80
2024/02/02 10:30:08;;;;;;;24.88;16.73;;;333.50;1792.00;;;;;;4833789;29;20431;-85
2024/02/02 10:32:39;;;;;;;16.05;9.90;;;333.40;1792.00;;;;;;4822745;29;20067;-86
2024/02/02 10:35:20;;;;;;;15.10;9.65;;;333.20;1817.60;;;;;;4824141;29;20049;-86
2024/02/02 10:37:50;;;;;;;16.63;12.80;;;333.20;1817.60;;;;;;4823110;29;20493;-86
2024/02/02 10:40:34;;;;;;;20.15;13.35;;;332.90;1843.20;;;;;;4839412;29;20049;-82
2024/02/02 10:43:18;;;;;;;8.95;4.68;;;307.90;1843.20;;;;;;4823022;29;20426;-85
2024/02/02 10:46:25;;;;;;;14.73;6.72;;;307.50;1868.80;;;;;;4829258;29;20026;-87
2024/02/02 10:48:58;;;;;;;16.58;8.05;;;282.50;1868.80;;;;;;4828343;29;20093;-85
2024/02/02 10:51:35;;;;;;;15.38;7.93;;;282.30;1868.80;;;;;;4822644;29;20026;-82
2024/02/02 10:54:13;;;;;;;13.18;7.53;;;282.30;1868.80;;;;;;4839065;29;20379;-84
2024/02/02 10:57:05;;;;;;;17.00;9.63;;;282.20;1894.40;;;;;;4838615;29;20026;-86
2024/02/02 11:00:00;;;;;;;19.08;8.30;;;282.10;1920.00;;;;;;4823694;29;20030;-79
2024/02/02 11:02:33;;;;;;;24.98;16.20;;;282.20;1920.00;;;;;;4838428;29;20026;-79
2024/02/02 11:05:31;;;;;;;23.50;10.88;;;282.20;1920.00;;;;;;4826526;29;20104;-79
2024/02/02 11:08:06;;;;;;;12.77;7.68;;;281.80;1945.60;;;;;;4822070;29;20477;-78
2024/02/02 11:10:38;;;;;;;18.48;13.65;;;281.70;1945.60;;;;;;4838961;29;20038;-80
2024/02/02 11:13:27;;;;;;;10.88;6.00;;;256.90;1920.00;;;;;;4838713;29;20034;-82
2024/02/02 11:16:20;;;;;;;20.00;11.38;;;256.90;1945.60;;;;;;4823852;29;20387;-85
2024/02/02 11:19:18;;;;;;;20.48;10.55;;;256.90;1920.00;;;;;;4839921;29;20041;-85
2024/02/02 11:22:03;;;;;;;15.52;9.07;;;256.80;1920.00;;;;;;4832504;29;20405;-88
2024/02/02 11:24:53;;;;;;;24.30;14.60;;;256.90;1920.00;;;;;;4825747;29;20026;-82
2024/02/02 11:28:01;;;;;;;37.50;22.65;;;256.90;1945.60;;;;;;4843235;29;20038;-86
2024/02/02 11:30:53;;;;;;;57.25;36.35;;;256.90;1945.60;;;;;;4802630;29;20371;-81
2024/02/02 11:33:59;;;;;;;67.72;43.10;;;281.60;1945.60;;;;;;4817729;29;20035;-79
2024/02/02 11:36:53;;;;;;;49.55;28.08;;;281.70;1971.20;;;;;;4802024;29;20041;-81
2024/02/02 11:39:33;;;;;;;33.90;23.88;;;281.60;1945.60;;;;;;4803442;29;20110;-82
2024/02/02 11:42:01;;;;;;;59.05;45.80;;;281.70;1945.60;;;;;;4803891;29;20031;-80
2024/02/02 11:44:28;;;;;;;11.95;9.60;;;281.60;1920.00;;;;;;4804899;29;20023;-84
2024/02/02 11:46:55;;;;;;;15.07;9.18;;;256.90;1894.40;;;;;;4803410;29;20479;-88
2024/02/02 11:49:29;;;;;;;11.77;7.20;;;281.60;1920.00;;;;;;4788565;29;20034;-86
2024/02/02 11:52:03;;;;;;;8.85;5.85;;;281.70;1945.60;;;;;;4806274;29;20039;-86
2024/02/02 11:55:07;;;;;;;13.07;6.30;;;256.90;1945.60;;;;;;4809193;29;20522;-82
2024/02/02 11:57:38;;;;;;;16.08;7.07;;;281.60;1971.20;;;;;;4816181;29;20394;-86
2024/02/02 12:00:08;;;;;;;11.10;5.80;;;281.60;1945.60;;;;;;4809212;29;20062;-80
2024/02/02 12:02:44;;;;;;;11.50;6.28;;;281.70;1945.60;;;;;;4800644;29;20026;-81
2024/02/02 12:05:16;;;;;;;17.23;9.60;;;281.70;1945.60;;;;;;4805560;29;20034;-80
2024/02/02 12:07:51;;;;;;;12.50;8.30;;;281.80;1945.60;;;;;;4821425;29;20037;-81
2024/02/02 12:10:20;;;;;;;15.10;5.53;;;281.70;1945.60;;;;;;4824548;29;20042;-81
2024/02/02 12:12:55;;;;;;;9.55;5.38;;;281.90;1945.60;;;;;;4824778;29;20053;-81
2024/02/02 12:15:21;;;;;;;11.95;5.03;;;281.90;1971.20;;;;;;4827078;29;20075;-84